sensor_id;sensor_type;location;lat;lon;timestamp;P1;durP1;ratioP1;P2;durP2;ratioP2
11481;SDS011;5797;51.662;6.748;2023-03-01T00:01:18;8.83;;;4.73;;
11481;SDS011;5797;51.662;6.748;2023-03-01T00:03:48;7.30;;;5.10;;
11481;SDS011;5797;51.662;6.748;2023-03-01T00:06:16;7.40;;;4.40;;
11481;SDS011;5797;51.662;6.748;2023-03-01T00:08:45;7.37;;;4.47;;
11481;SDS011;5797;51.662;6.748;2023-03-01T00:11:13;6.07;;;4.23;;
11481;SDS011;5797;51.662;6.748;2023-03-01T00:13:44;10.47;;;5.20;;
11481;SDS011;5797;51.662;6.748;2023-03-01T00:16:14;8.33;;;4.53;;
11481;SDS011;5797;51.662;6.748;2023-03-01T00:18:44;9.83;;;5.27;;
11481;SDS011;5797;51.662;6.748;2023-03-01T00:21:12;7.93;;;5.10;;
11481;SDS011;5797;51.662;6.748;2023-03-01T00:23:40;9.30;;;4.93;;
11481;SDS011;5797;51.662;6.748;2023-03-01T00:26:09;12.23;;;5.70;;
11481;SDS011;5797;51.662;6.748;2023-03-01T00:28:41;10.10;;;4.93;;
11481;SDS011;5797;51.662;6.748;2023-03-01T00:31:11;10.80;;;5.20;;
11481;SDS011;5797;51.662;6.748;2023-03-01T00:33:42;8.03;;;5.40;;
11481;SDS011;5797;51.662;6.748;2023-03-01T00:36:11;10.77;;;5.60;;
11481;SDS011;5797;51.662;6.748;2023-03-01T00:38:41;10.60;;;5.47;;
11481;SDS011;5797;51.662;6.748;2023-03-01T00:41:11;9.27;;;5.90;;
11481;SDS011;5797;51.662;6.748;2023-03-01T00:43:41;10.20;;;5.17;;
11481;SDS011;5797;51.662;6.748;2023-03-01T00:46:09;9.17;;;6.30;;
11481;SDS011;5797;51.662;6.748;2023-03-01T00:48:39;9.30;;;5.07;;
11481;SDS011;5797;51.662;6.748;2023-03-01T00:51:10;8.50;;;5.00;;
11481;SDS011;5797;51.662;6.748;2023-03-01T00:53:39;10.70;;;5.10;;
11481;SDS011;5797;51.662;6.748;2023-03-01T00:56:08;10.80;;;5.80;;
11481;SDS011;5797;51.662;6.748;2023-03-01T00:58:38;10.50;;;5.20;;
11481;SDS011;5797;51.662;6.748;2023-03-01T01:01:07;9.67;;;4.60;;
11481;SDS011;5797;51.662;6.748;2023-03-01T01:03:44;10.03;;;4.73;;
11481;SDS011;5797;51.662;6.748;2023-03-01T01:06:15;8.67;;;4.63;;
11481;SDS011;5797;51.662;6.748;2023-03-01T01:08:44;10.13;;;4.63;;
11481;SDS011;5797;51.662;6.748;2023-03-01T01:11:13;6.20;;;4.37;;
11481;SDS011;5797;51.662;6.748;2023-03-01T01:13:41;7.47;;;4.60;;
11481;SDS011;5797;51.662;6.748;2023-03-01T01:16:11;7.43;;;4.30;;
11481;SDS011;5797;51.662;6.748;2023-03-01T01:18:41;8.27;;;4.60;;
11481;SDS011;5797;51.662;6.748;2023-03-01T01:21:10;8.90;;;4.07;;
11481;SDS011;5797;51.662;6.748;2023-03-01T01:23:41;5.73;;;4.30;;
11481;SDS011;5797;51.662;6.748;2023-03-01T01:26:10;8.67;;;4.93;;
11481;SDS011;5797;51.662;6.748;2023-03-01T01:28:40;9.43;;;4.40;;
11481;SDS011;5797;51.662;6.748;2023-03-01T01:31:08;7.00;;;4.43;;
11481;SDS011;5797;51.662;6.748;2023-03-01T01:33:37;8.23;;;4.73;;
11481;SDS011;5797;51.662;6.748;2023-03-01T01:36:06;9.00;;;4.53;;
11481;SDS011;5797;51.662;6.748;2023-03-01T01:38:35;7.53;;;4.50;;
11481;SDS011;5797;51.662;6.748;2023-03-01T01:41:06;6.50;;;4.07;;
11481;SDS011;5797;51.662;6.748;2023-03-01T01:43:36;6.63;;;4.63;;
11481;SDS011;5797;51.662;6.748;2023-03-01T01:46:05;6.77;;;4.03;;
11481;SDS011;5797;51.662;6.748;2023-03-01T01:48:37;6.07;;;4.63;;
11481;SDS011;5797;51.662;6.748;2023-03-01T01:51:10;6.03;;;4.53;;
11481;SDS011;5797;51.662;6.748;2023-03-01T01:53:40;9.17;;;5.00;;
11481;SDS011;5797;51.662;6.748;2023-03-01T01:56:11;9.13;;;5.47;;
11481;SDS011;5797;51.662;6.748;2023-03-01T01:58:40;6.93;;;4.90;;
11481;SDS011;5797;51.662;6.748;2023-03-01T02:01:10;6.43;;;4.37;;
11481;SDS011;5797;51.662;6.748;2023-03-01T02:03:39;6.67;;;4.33;;
11481;SDS011;5797;51.662;6.748;2023-03-01T02:06:12;7.43;;;4.53;;
11481;SDS011;5797;51.662;6.748;2023-03-01T02:08:43;8.23;;;4.87;;
11481;SDS011;5797;51.662;6.748;2023-03-01T02:11:13;8.20;;;4.27;;
11481;SDS011;5797;51.662;6.748;2023-03-01T02:13:42;6.17;;;3.97;;
11481;SDS011;5797;51.662;6.748;2023-03-01T02:16:12;10.67;;;4.50;;
11481;SDS011;5797;51.662;6.748;2023-03-01T02:18:41;8.87;;;5.20;;
11481;SDS011;5797;51.662;6.748;2023-03-01T02:21:13;7.03;;;4.50;;
11481;SDS011;5797;51.662;6.748;2023-03-01T02:24:00;8.13;;;4.50;;
11481;SDS011;5797;51.662;6.748;2023-03-01T02:26:37;6.93;;;4.63;;
11481;SDS011;5797;51.662;6.748;2023-03-01T02:29:10;6.07;;;3.90;;
11481;SDS011;5797;51.662;6.748;2023-03-01T02:31:38;8.33;;;4.50;;
11481;SDS011;5797;51.662;6.748;2023-03-01T02:34:12;9.03;;;5.07;;
11481;SDS011;5797;51.662;6.748;2023-03-01T02:36:43;5.53;;;3.77;;
11481;SDS011;5797;51.662;6.748;2023-03-01T02:39:14;9.73;;;5.10;;
11481;SDS011;5797;51.662;6.748;2023-03-01T02:41:45;9.30;;;4.17;;
11481;SDS011;5797;51.662;6.748;2023-03-01T02:44:17;4.80;;;3.90;;
11481;SDS011;5797;51.662;6.748;2023-03-01T02:46:46;7.23;;;4.30;;
11481;SDS011;5797;51.662;6.748;2023-03-01T02:49:18;7.47;;;4.57;;
11481;SDS011;5797;51.662;6.748;2023-03-01T02:51:52;7.03;;;4.53;;
11481;SDS011;5797;51.662;6.748;2023-03-01T02:54:30;8.37;;;4.37;;
11481;SDS011;5797;51.662;6.748;2023-03-01T02:57:00;9.00;;;5.40;;
11481;SDS011;5797;51.662;6.748;2023-03-01T02:59:32;5.20;;;4.00;;
11481;SDS011;5797;51.662;6.748;2023-03-01T03:02:07;6.10;;;4.27;;
11481;SDS011;5797;51.662;6.748;2023-03-01T03:04:35;6.33;;;4.23;;
11481;SDS011;5797;51.662;6.748;2023-03-01T03:07:03;8.07;;;4.77;;
11481;SDS011;5797;51.662;6.748;2023-03-01T03:09:32;10.77;;;4.63;;
11481;SDS011;5797;51.662;6.748;2023-03-01T03:12:00;6.53;;;4.67;;
11481;SDS011;5797;51.662;6.748;2023-03-01T03:14:29;8.90;;;4.40;;
11481;SDS011;5797;51.662;6.748;2023-03-01T03:17:03;7.23;;;4.57;;
11481;SDS011;5797;51.662;6.748;2023-03-01T03:19:33;8.07;;;4.30;;
11481;SDS011;5797;51.662;6.748;2023-03-01T03:22:04;7.07;;;4.60;;
11481;SDS011;5797;51.662;6.748;2023-03-01T03:24:32;8.83;;;5.47;;
11481;SDS011;5797;51.662;6.748;2023-03-01T03:27:05;7.23;;;4.37;;
11481;SDS011;5797;51.662;6.748;2023-03-01T03:29:33;7.80;;;4.40;;
11481;SDS011;5797;51.662;6.748;2023-03-01T03:32:03;5.83;;;4.27;;
11481;SDS011;5797;51.662;6.748;2023-03-01T03:34:31;6.37;;;4.23;;
11481;SDS011;5797;51.662;6.748;2023-03-01T03:37:00;7.17;;;4.83;;
11481;SDS011;5797;51.662;6.748;2023-03-01T03:39:28;8.83;;;4.93;;
11481;SDS011;5797;51.662;6.748;2023-03-01T03:42:01;7.73;;;5.13;;
11481;SDS011;5797;51.662;6.748;2023-03-01T03:44:29;7.00;;;3.80;;
11481;SDS011;5797;51.662;6.748;2023-03-01T03:46:58;6.27;;;3.83;;
11481;SDS011;5797;51.662;6.748;2023-03-01T03:49:27;7.70;;;4.87;;
11481;SDS011;5797;51.662;6.748;2023-03-01T03:51:56;6.87;;;4.50;;
11481;SDS011;5797;51.662;6.748;2023-03-01T03:54:24;8.40;;;5.37;;
11481;SDS011;5797;51.662;6.748;2023-03-01T03:56:52;8.80;;;5.17;;
11481;SDS011;5797;51.662;6.748;2023-03-01T03:59:20;8.53;;;5.27;;
11481;SDS011;5797;51.662;6.748;2023-03-01T04:01:49;8.27;;;5.57;;
11481;SDS011;5797;51.662;6.748;2023-03-01T04:04:17;10.87;;;4.83;;
11481;SDS011;5797;51.662;6.748;2023-03-01T04:06:47;9.10;;;5.33;;
11481;SDS011;5797;51.662;6.748;2023-03-01T04:09:15;8.47;;;5.53;;
11481;SDS011;5797;51.662;6.748;2023-03-01T04:11:43;7.67;;;4.77;;
11481;SDS011;5797;51.662;6.748;2023-03-01T04:14:11;7.47;;;5.03;;
11481;SDS011;5797;51.662;6.748;2023-03-01T04:16:40;9.33;;;4.90;;
11481;SDS011;5797;51.662;6.748;2023-03-01T04:19:08;7.47;;;4.97;;
11481;SDS011;5797;51.662;6.748;2023-03-01T04:21:37;9.73;;;5.37;;
11481;SDS011;5797;51.662;6.748;2023-03-01T04:24:08;8.30;;;5.17;;
11481;SDS011;5797;51.662;6.748;2023-03-01T04:26:36;10.60;;;4.80;;
11481;SDS011;5797;51.662;6.748;2023-03-01T04:29:05;10.13;;;5.20;;
11481;SDS011;5797;51.662;6.748;2023-03-01T04:31:34;8.27;;;5.20;;
11481;SDS011;5797;51.662;6.748;2023-03-01T04:34:02;7.30;;;5.00;;
11481;SDS011;5797;51.662;6.748;2023-03-01T04:36:30;9.87;;;4.97;;
11481;SDS011;5797;51.662;6.748;2023-03-01T04:38:59;8.70;;;5.63;;
11481;SDS011;5797;51.662;6.748;2023-03-01T04:41:40;9.23;;;4.83;;
11481;SDS011;5797;51.662;6.748;2023-03-01T04:44:10;7.53;;;5.10;;
11481;SDS011;5797;51.662;6.748;2023-03-01T04:46:39;8.17;;;4.80;;
11481;SDS011;5797;51.662;6.748;2023-03-01T04:49:07;9.30;;;5.33;;
11481;SDS011;5797;51.662;6.748;2023-03-01T04:51:36;10.47;;;5.27;;
11481;SDS011;5797;51.662;6.748;2023-03-01T04:54:05;8.60;;;5.53;;
11481;SDS011;5797;51.662;6.748;2023-03-01T04:56:35;10.70;;;5.50;;
11481;SDS011;5797;51.662;6.748;2023-03-01T04:59:05;11.03;;;4.80;;
11481;SDS011;5797;51.662;6.748;2023-03-01T05:01:35;8.50;;;4.03;;
11481;SDS011;5797;51.662;6.748;2023-03-01T05:04:04;9.90;;;5.27;;
11481;SDS011;5797;51.662;6.748;2023-03-01T05:06:32;8.50;;;5.57;;
11481;SDS011;5797;51.662;6.748;2023-03-01T05:09:01;10.30;;;5.47;;
11481;SDS011;5797;51.662;6.748;2023-03-01T05:11:30;9.83;;;5.50;;
11481;SDS011;5797;51.662;6.748;2023-03-01T05:14:02;9.00;;;5.27;;
11481;SDS011;5797;51.662;6.748;2023-03-01T05:16:32;10.73;;;6.07;;
11481;SDS011;5797;51.662;6.748;2023-03-01T05:19:02;10.27;;;6.07;;
11481;SDS011;5797;51.662;6.748;2023-03-01T05:21:38;12.00;;;5.50;;
11481;SDS011;5797;51.662;6.748;2023-03-01T05:24:27;9.83;;;5.50;;
11481;SDS011;5797;51.662;6.748;2023-03-01T05:26:56;11.33;;;4.87;;
11481;SDS011;5797;51.662;6.748;2023-03-01T05:29:25;8.93;;;5.17;;
11481;SDS011;5797;51.662;6.748;2023-03-01T05:31:57;12.17;;;6.13;;
11481;SDS011;5797;51.662;6.748;2023-03-01T05:34:26;10.53;;;5.60;;
11481;SDS011;5797;51.662;6.748;2023-03-01T05:36:56;8.97;;;5.63;;
11481;SDS011;5797;51.662;6.748;2023-03-01T05:39:25;10.37;;;6.03;;
11481;SDS011;5797;51.662;6.748;2023-03-01T05:41:55;8.53;;;6.03;;
11481;SDS011;5797;51.662;6.748;2023-03-01T05:44:25;8.03;;;5.30;;
11481;SDS011;5797;51.662;6.748;2023-03-01T05:46:54;9.73;;;5.80;;
11481;SDS011;5797;51.662;6.748;2023-03-01T05:49:24;8.17;;;5.50;;
11481;SDS011;5797;51.662;6.748;2023-03-01T05:51:53;9.23;;;5.73;;
11481;SDS011;5797;51.662;6.748;2023-03-01T05:54:21;10.50;;;5.40;;
11481;SDS011;5797;51.662;6.748;2023-03-01T05:56:50;9.00;;;5.37;;
11481;SDS011;5797;51.662;6.748;2023-03-01T05:59:18;13.50;;;6.10;;
11481;SDS011;5797;51.662;6.748;2023-03-01T06:01:46;9.63;;;5.80;;
11481;SDS011;5797;51.662;6.748;2023-03-01T06:04:15;9.87;;;6.07;;
11481;SDS011;5797;51.662;6.748;2023-03-01T06:06:44;12.37;;;5.50;;
11481;SDS011;5797;51.662;6.748;2023-03-01T06:09:13;10.93;;;5.87;;
11481;SDS011;5797;51.662;6.748;2023-03-01T06:11:41;8.60;;;5.87;;
11481;SDS011;5797;51.662;6.748;2023-03-01T06:14:10;9.07;;;5.33;;
11481;SDS011;5797;51.662;6.748;2023-03-01T06:16:41;9.70;;;6.07;;
11481;SDS011;5797;51.662;6.748;2023-03-01T06:19:09;10.43;;;5.80;;
11481;SDS011;5797;51.662;6.748;2023-03-01T06:21:38;9.37;;;6.00;;
11481;SDS011;5797;51.662;6.748;2023-03-01T06:24:07;7.23;;;5.50;;
11481;SDS011;5797;51.662;6.748;2023-03-01T06:26:36;13.43;;;6.20;;
11481;SDS011;5797;51.662;6.748;2023-03-01T06:29:04;9.77;;;6.10;;
11481;SDS011;5797;51.662;6.748;2023-03-01T06:31:33;8.70;;;5.83;;
11481;SDS011;5797;51.662;6.748;2023-03-01T06:34:01;8.60;;;5.97;;
11481;SDS011;5797;51.662;6.748;2023-03-01T06:36:29;10.47;;;5.23;;
11481;SDS011;5797;51.662;6.748;2023-03-01T06:38:58;9.67;;;6.40;;
11481;SDS011;5797;51.662;6.748;2023-03-01T06:41:28;10.77;;;6.07;;
11481;SDS011;5797;51.662;6.748;2023-03-01T06:43:56;11.90;;;5.97;;
11481;SDS011;5797;51.662;6.748;2023-03-01T06:46:25;9.20;;;6.40;;
11481;SDS011;5797;51.662;6.748;2023-03-01T06:48:54;11.63;;;6.93;;
11481;SDS011;5797;51.662;6.748;2023-03-01T06:51:22;10.00;;;6.37;;
11481;SDS011;5797;51.662;6.748;2023-03-01T06:53:51;12.70;;;6.30;;
11481;SDS011;5797;51.662;6.748;2023-03-01T06:56:19;11.77;;;6.23;;
11481;SDS011;5797;51.662;6.748;2023-03-01T06:58:49;12.27;;;5.67;;
11481;SDS011;5797;51.662;6.748;2023-03-01T07:01:17;11.87;;;6.57;;
11481;SDS011;5797;51.662;6.748;2023-03-01T07:03:45;9.97;;;6.17;;
11481;SDS011;5797;51.662;6.748;2023-03-01T07:06:14;10.50;;;6.40;;
11481;SDS011;5797;51.662;6.748;2023-03-01T07:08:42;12.47;;;5.93;;
11481;SDS011;5797;51.662;6.748;2023-03-01T07:11:11;11.37;;;5.60;;
11481;SDS011;5797;51.662;6.748;2023-03-01T07:13:39;9.33;;;5.73;;
11481;SDS011;5797;51.662;6.748;2023-03-01T07:16:10;10.37;;;6.07;;
11481;SDS011;5797;51.662;6.748;2023-03-01T07:18:38;10.90;;;6.60;;
11481;SDS011;5797;51.662;6.748;2023-03-01T07:21:07;10.37;;;5.87;;
11481;SDS011;5797;51.662;6.748;2023-03-01T07:23:36;14.17;;;5.77;;
11481;SDS011;5797;51.662;6.748;2023-03-01T07:26:05;12.43;;;6.37;;
11481;SDS011;5797;51.662;6.748;2023-03-01T07:28:34;13.97;;;6.23;;
11481;SDS011;5797;51.662;6.748;2023-03-01T07:31:05;14.40;;;6.93;;
11481;SDS011;5797;51.662;6.748;2023-03-01T07:33:36;10.60;;;6.63;;
11481;SDS011;5797;51.662;6.748;2023-03-01T07:36:04;11.83;;;6.83;;
11481;SDS011;5797;51.662;6.748;2023-03-01T07:38:33;14.43;;;6.73;;
11481;SDS011;5797;51.662;6.748;2023-03-01T07:41:02;9.27;;;6.43;;
11481;SDS011;5797;51.662;6.748;2023-03-01T07:43:32;14.80;;;6.23;;
11481;SDS011;5797;51.662;6.748;2023-03-01T07:46:02;10.60;;;6.37;;
11481;SDS011;5797;51.662;6.748;2023-03-01T07:48:31;9.67;;;6.23;;
11481;SDS011;5797;51.662;6.748;2023-03-01T07:51:02;9.80;;;7.33;;
11481;SDS011;5797;51.662;6.748;2023-03-01T07:53:32;12.00;;;7.13;;
11481;SDS011;5797;51.662;6.748;2023-03-01T07:56:02;12.33;;;7.37;;
11481;SDS011;5797;51.662;6.748;2023-03-01T07:58:33;10.53;;;6.60;;
11481;SDS011;5797;51.662;6.748;2023-03-01T08:01:02;14.20;;;7.30;;
11481;SDS011;5797;51.662;6.748;2023-03-01T08:03:31;12.03;;;6.67;;
11481;SDS011;5797;51.662;6.748;2023-03-01T08:06:00;11.10;;;6.20;;
11481;SDS011;5797;51.662;6.748;2023-03-01T08:08:30;11.83;;;6.60;;
11481;SDS011;5797;51.662;6.748;2023-03-01T08:11:00;12.07;;;6.40;;
11481;SDS011;5797;51.662;6.748;2023-03-01T08:13:29;17.23;;;7.50;;
11481;SDS011;5797;51.662;6.748;2023-03-01T08:16:00;9.77;;;5.83;;
11481;SDS011;5797;51.662;6.748;2023-03-01T08:18:29;10.47;;;6.37;;
11481;SDS011;5797;51.662;6.748;2023-03-01T08:21:02;9.57;;;6.40;;
11481;SDS011;5797;51.662;6.748;2023-03-01T08:23:31;11.73;;;6.50;;
11481;SDS011;5797;51.662;6.748;2023-03-01T08:26:03;11.77;;;6.73;;
11481;SDS011;5797;51.662;6.748;2023-03-01T08:28:33;15.00;;;7.60;;
11481;SDS011;5797;51.662;6.748;2023-03-01T08:31:02;11.40;;;7.13;;
11481;SDS011;5797;51.662;6.748;2023-03-01T08:33:31;11.30;;;7.07;;
11481;SDS011;5797;51.662;6.748;2023-03-01T08:36:05;12.37;;;6.37;;
11481;SDS011;5797;51.662;6.748;2023-03-01T08:38:34;13.27;;;7.13;;
11481;SDS011;5797;51.662;6.748;2023-03-01T08:41:03;13.53;;;6.77;;
11481;SDS011;5797;51.662;6.748;2023-03-01T08:43:31;13.47;;;7.17;;
11481;SDS011;5797;51.662;6.748;2023-03-01T08:46:00;14.50;;;7.50;;
11481;SDS011;5797;51.662;6.748;2023-03-01T08:48:28;12.73;;;7.57;;
11481;SDS011;5797;51.662;6.748;2023-03-01T08:50:56;13.13;;;7.10;;
11481;SDS011;5797;51.662;6.748;2023-03-01T08:53:26;10.77;;;6.87;;
11481;SDS011;5797;51.662;6.748;2023-03-01T08:55:54;14.13;;;7.33;;
11481;SDS011;5797;51.662;6.748;2023-03-01T08:58:23;15.47;;;7.17;;
11481;SDS011;5797;51.662;6.748;2023-03-01T09:00:51;14.20;;;7.37;;
11481;SDS011;5797;51.662;6.748;2023-03-01T09:03:19;13.93;;;7.80;;
11481;SDS011;5797;51.662;6.748;2023-03-01T09:05:47;11.97;;;7.10;;
11481;SDS011;5797;51.662;6.748;2023-03-01T09:08:17;11.90;;;6.37;;
11481;SDS011;5797;51.662;6.748;2023-03-01T09:10:46;13.10;;;7.43;;
11481;SDS011;5797;51.662;6.748;2023-03-01T09:13:15;15.30;;;7.10;;
11481;SDS011;5797;51.662;6.748;2023-03-01T09:15:43;11.57;;;6.40;;
11481;SDS011;5797;51.662;6.748;2023-03-01T09:18:12;13.83;;;7.67;;
11481;SDS011;5797;51.662;6.748;2023-03-01T09:20:40;10.53;;;6.60;;
11481;SDS011;5797;51.662;6.748;2023-03-01T09:23:08;14.17;;;6.40;;
11481;SDS011;5797;51.662;6.748;2023-03-01T09:25:37;11.90;;;6.60;;
11481;SDS011;5797;51.662;6.748;2023-03-01T09:28:06;15.03;;;7.17;;
11481;SDS011;5797;51.662;6.748;2023-03-01T09:30:41;10.50;;;5.80;;
11481;SDS011;5797;51.662;6.748;2023-03-01T09:33:09;14.30;;;6.97;;
11481;SDS011;5797;51.662;6.748;2023-03-01T09:35:41;9.43;;;5.73;;
11481;SDS011;5797;51.662;6.748;2023-03-01T09:38:13;13.80;;;5.70;;
11481;SDS011;5797;51.662;6.748;2023-03-01T09:40:42;10.97;;;6.53;;
11481;SDS011;5797;51.662;6.748;2023-03-01T09:43:16;10.07;;;6.40;;
11481;SDS011;5797;51.662;6.748;2023-03-01T09:45:48;9.67;;;6.33;;
11481;SDS011;5797;51.662;6.748;2023-03-01T09:48:18;9.87;;;5.73;;
11481;SDS011;5797;51.662;6.748;2023-03-01T09:50:49;13.43;;;6.13;;
11481;SDS011;5797;51.662;6.748;2023-03-01T09:53:18;11.03;;;5.40;;
11481;SDS011;5797;51.662;6.748;2023-03-01T09:55:49;8.00;;;5.10;;
11481;SDS011;5797;51.662;6.748;2023-03-01T09:58:31;8.20;;;5.40;;
11481;SDS011;5797;51.662;6.748;2023-03-01T10:01:10;9.37;;;5.47;;
11481;SDS011;5797;51.662;6.748;2023-03-01T10:03:57;10.43;;;5.43;;
11481;SDS011;5797;51.662;6.748;2023-03-01T10:06:33;7.83;;;5.20;;
11481;SDS011;5797;51.662;6.748;2023-03-01T10:09:02;8.47;;;5.20;;
11481;SDS011;5797;51.662;6.748;2023-03-01T10:11:35;12.80;;;6.07;;
11481;SDS011;5797;51.662;6.748;2023-03-01T10:14:13;8.47;;;5.20;;
11481;SDS011;5797;51.662;6.748;2023-03-01T10:16:46;8.37;;;5.10;;
11481;SDS011;5797;51.662;6.748;2023-03-01T10:19:17;9.47;;;4.73;;
11481;SDS011;5797;51.662;6.748;2023-03-01T10:21:50;8.37;;;5.00;;
11481;SDS011;5797;51.662;6.748;2023-03-01T10:24:19;9.37;;;5.80;;
11481;SDS011;5797;51.662;6.748;2023-03-01T10:26:51;10.87;;;5.30;;
11481;SDS011;5797;51.662;6.748;2023-03-01T10:29:25;9.07;;;5.27;;
11481;SDS011;5797;51.662;6.748;2023-03-01T10:31:55;7.83;;;4.93;;
11481;SDS011;5797;51.662;6.748;2023-03-01T10:34:27;11.10;;;5.30;;
11481;SDS011;5797;51.662;6.748;2023-03-01T10:36:58;8.77;;;5.30;;
11481;SDS011;5797;51.662;6.748;2023-03-01T10:39:29;7.63;;;5.10;;
11481;SDS011;5797;51.662;6.748;2023-03-01T10:41:58;13.70;;;5.53;;
11481;SDS011;5797;51.662;6.748;2023-03-01T10:44:37;11.03;;;5.30;;
11481;SDS011;5797;51.662;6.748;2023-03-01T10:47:12;7.70;;;4.67;;
11481;SDS011;5797;51.662;6.748;2023-03-01T10:49:51;8.70;;;5.23;;
11481;SDS011;5797;51.662;6.748;2023-03-01T10:52:21;11.13;;;5.07;;
11481;SDS011;5797;51.662;6.748;2023-03-01T10:54:52;10.70;;;5.00;;
11481;SDS011;5797;51.662;6.748;2023-03-01T10:57:27;12.10;;;5.13;;
11481;SDS011;5797;51.662;6.748;2023-03-01T11:00:13;9.27;;;4.67;;
11481;SDS011;5797;51.662;6.748;2023-03-01T11:02:47;8.73;;;5.50;;
11481;SDS011;5797;51.662;6.748;2023-03-01T11:05:19;11.17;;;5.10;;
11481;SDS011;5797;51.662;6.748;2023-03-01T11:07:51;10.53;;;5.03;;
11481;SDS011;5797;51.662;6.748;2023-03-01T11:10:23;7.97;;;4.80;;
11481;SDS011;5797;51.662;6.748;2023-03-01T11:12:52;7.63;;;4.97;;
11481;SDS011;5797;51.662;6.748;2023-03-01T11:15:24;7.63;;;4.47;;
11481;SDS011;5797;51.662;6.748;2023-03-01T11:17:54;5.80;;;4.53;;
11481;SDS011;5797;51.662;6.748;2023-03-01T11:20:35;7.70;;;5.03;;
11481;SDS011;5797;51.662;6.748;2023-03-01T11:23:04;7.67;;;4.63;;
11481;SDS011;5797;51.662;6.748;2023-03-01T11:25:36;6.33;;;4.77;;
11481;SDS011;5797;51.662;6.748;2023-03-01T11:28:06;6.77;;;4.30;;
11481;SDS011;5797;51.662;6.748;2023-03-01T11:30:40;7.97;;;5.20;;
11481;SDS011;5797;51.662;6.748;2023-03-01T11:33:17;7.87;;;4.30;;
11481;SDS011;5797;51.662;6.748;2023-03-01T11:35:49;8.63;;;4.33;;
11481;SDS011;5797;51.662;6.748;2023-03-01T11:38:24;6.33;;;4.73;;
11481;SDS011;5797;51.662;6.748;2023-03-01T11:40:54;8.47;;;5.13;;
11481;SDS011;5797;51.662;6.748;2023-03-01T11:43:28;10.10;;;5.37;;
11481;SDS011;5797;51.662;6.748;2023-03-01T11:49:12;10.53;;;5.03;;
11481;SDS011;5797;51.662;6.748;2023-03-01T11:51:52;7.17;;;4.63;;
11481;SDS011;5797;51.662;6.748;2023-03-01T11:54:27;10.13;;;5.10;;
11481;SDS011;5797;51.662;6.748;2023-03-01T11:57:06;11.77;;;5.27;;
11481;SDS011;5797;51.662;6.748;2023-03-01T11:59:53;8.83;;;5.10;;
11481;SDS011;5797;51.662;6.748;2023-03-01T12:02:40;6.70;;;4.70;;
11481;SDS011;5797;51.662;6.748;2023-03-01T12:05:33;6.97;;;4.97;;
11481;SDS011;5797;51.662;6.748;2023-03-01T12:08:32;7.83;;;5.03;;
11481;SDS011;5797;51.662;6.748;2023-03-01T12:11:07;6.47;;;4.60;;
11481;SDS011;5797;51.662;6.748;2023-03-01T12:13:48;6.37;;;4.73;;
11481;SDS011;5797;51.662;6.748;2023-03-01T12:16:27;8.70;;;4.90;;
11481;SDS011;5797;51.662;6.748;2023-03-01T12:19:08;9.87;;;5.30;;
11481;SDS011;5797;51.662;6.748;2023-03-01T12:21:52;9.30;;;5.53;;
11481;SDS011;5797;51.662;6.748;2023-03-01T12:24:29;7.33;;;4.67;;
11481;SDS011;5797;51.662;6.748;2023-03-01T12:27:09;9.43;;;5.37;;
11481;SDS011;5797;51.662;6.748;2023-03-01T12:29:47;8.33;;;5.07;;
11481;SDS011;5797;51.662;6.748;2023-03-01T12:32:25;10.53;;;5.67;;
11481;SDS011;5797;51.662;6.748;2023-03-01T12:35:11;8.57;;;5.33;;
11481;SDS011;5797;51.662;6.748;2023-03-01T12:37:55;9.50;;;5.33;;
11481;SDS011;5797;51.662;6.748;2023-03-01T12:43:17;7.60;;;5.10;;
11481;SDS011;5797;51.662;6.748;2023-03-01T12:46:08;6.53;;;4.90;;
11481;SDS011;5797;51.662;6.748;2023-03-01T12:48:42;7.67;;;5.17;;
11481;SDS011;5797;51.662;6.748;2023-03-01T12:51:18;9.63;;;5.50;;
11481;SDS011;5797;51.662;6.748;2023-03-01T12:53:53;10.23;;;4.83;;
11481;SDS011;5797;51.662;6.748;2023-03-01T12:56:23;8.70;;;5.37;;
11481;SDS011;5797;51.662;6.748;2023-03-01T12:58:55;17.63;;;5.80;;
11481;SDS011;5797;51.662;6.748;2023-03-01T13:01:33;13.87;;;5.80;;
11481;SDS011;5797;51.662;6.748;2023-03-01T13:04:22;8.67;;;5.50;;
11481;SDS011;5797;51.662;6.748;2023-03-01T13:09:58;9.00;;;5.83;;
11481;SDS011;5797;51.662;6.748;2023-03-01T13:12:41;8.27;;;5.70;;
11481;SDS011;5797;51.662;6.748;2023-03-01T13:15:27;10.27;;;6.20;;
11481;SDS011;5797;51.662;6.748;2023-03-01T13:17:58;8.60;;;5.60;;
11481;SDS011;5797;51.662;6.748;2023-03-01T13:20:29;9.27;;;6.10;;
11481;SDS011;5797;51.662;6.748;2023-03-01T13:23:13;10.17;;;5.93;;
11481;SDS011;5797;51.662;6.748;2023-03-01T13:28:52;9.87;;;6.17;;
11481;SDS011;5797;51.662;6.748;2023-03-01T13:34:41;12.53;;;6.73;;
11481;SDS011;5797;51.662;6.748;2023-03-01T13:37:18;11.90;;;6.77;;
11481;SDS011;5797;51.662;6.748;2023-03-01T13:39:48;12.33;;;6.73;;
11481;SDS011;5797;51.662;6.748;2023-03-01T13:45:33;11.73;;;7.50;;
11481;SDS011;5797;51.662;6.748;2023-03-01T13:48:08;11.57;;;6.83;;
11481;SDS011;5797;51.662;6.748;2023-03-01T13:50:38;11.30;;;7.10;;
11481;SDS011;5797;51.662;6.748;2023-03-01T13:53:14;10.97;;;6.90;;
11481;SDS011;5797;51.662;6.748;2023-03-01T13:55:46;11.93;;;6.43;;
11481;SDS011;5797;51.662;6.748;2023-03-01T13:58:20;10.67;;;7.13;;
11481;SDS011;5797;51.662;6.748;2023-03-01T14:00:58;12.53;;;7.33;;
11481;SDS011;5797;51.662;6.748;2023-03-01T14:03:27;12.50;;;6.67;;
11481;SDS011;5797;51.662;6.748;2023-03-01T14:05:58;10.90;;;7.20;;
11481;SDS011;5797;51.662;6.748;2023-03-01T14:08:41;11.80;;;6.87;;
11481;SDS011;5797;51.662;6.748;2023-03-01T14:11:20;10.60;;;7.63;;
11481;SDS011;5797;51.662;6.748;2023-03-01T14:14:01;10.87;;;6.87;;
11481;SDS011;5797;51.662;6.748;2023-03-01T14:16:39;10.37;;;7.17;;
11481;SDS011;5797;51.662;6.748;2023-03-01T14:19:15;11.17;;;7.53;;
11481;SDS011;5797;51.662;6.748;2023-03-01T14:21:58;13.53;;;6.90;;
11481;SDS011;5797;51.662;6.748;2023-03-01T14:24:31;10.37;;;6.50;;
11481;SDS011;5797;51.662;6.748;2023-03-01T14:27:02;10.83;;;6.83;;
11481;SDS011;5797;51.662;6.748;2023-03-01T14:29:35;10.07;;;6.63;;
11481;SDS011;5797;51.662;6.748;2023-03-01T14:32:09;10.33;;;6.87;;
11481;SDS011;5797;51.662;6.748;2023-03-01T14:34:42;9.27;;;6.57;;
11481;SDS011;5797;51.662;6.748;2023-03-01T14:37:19;10.70;;;6.73;;
11481;SDS011;5797;51.662;6.748;2023-03-01T14:39:50;10.40;;;6.97;;
11481;SDS011;5797;51.662;6.748;2023-03-01T14:42:19;9.70;;;6.60;;
11481;SDS011;5797;51.662;6.748;2023-03-01T14:44:51;9.00;;;6.33;;
11481;SDS011;5797;51.662;6.748;2023-03-01T14:47:23;10.67;;;6.77;;
11481;SDS011;5797;51.662;6.748;2023-03-01T14:49:57;11.57;;;6.73;;
11481;SDS011;5797;51.662;6.748;2023-03-01T14:52:30;9.43;;;6.50;;
11481;SDS011;5797;51.662;6.748;2023-03-01T14:55:04;12.47;;;6.63;;
11481;SDS011;5797;51.662;6.748;2023-03-01T14:57:34;10.87;;;6.33;;
11481;SDS011;5797;51.662;6.748;2023-03-01T15:00:05;9.97;;;6.67;;
11481;SDS011;5797;51.662;6.748;2023-03-01T15:02:35;10.20;;;6.30;;
11481;SDS011;5797;51.662;6.748;2023-03-01T15:05:04;10.60;;;6.30;;
11481;SDS011;5797;51.662;6.748;2023-03-01T15:07:36;9.47;;;6.27;;
11481;SDS011;5797;51.662;6.748;2023-03-01T15:10:07;8.87;;;6.07;;
11481;SDS011;5797;51.662;6.748;2023-03-01T15:12:45;11.10;;;6.33;;
11481;SDS011;5797;51.662;6.748;2023-03-01T15:15:30;10.60;;;6.33;;
11481;SDS011;5797;51.662;6.748;2023-03-01T15:18:00;7.00;;;5.63;;
11481;SDS011;5797;51.662;6.748;2023-03-01T15:20:30;10.27;;;6.03;;
11481;SDS011;5797;51.662;6.748;2023-03-01T15:23:02;8.63;;;6.03;;
11481;SDS011;5797;51.662;6.748;2023-03-01T15:25:31;7.97;;;5.60;;
11481;SDS011;5797;51.662;6.748;2023-03-01T15:28:01;9.67;;;5.57;;
11481;SDS011;5797;51.662;6.748;2023-03-01T15:30:32;9.73;;;5.40;;
11481;SDS011;5797;51.662;6.748;2023-03-01T15:33:17;7.87;;;5.77;;
11481;SDS011;5797;51.662;6.748;2023-03-01T15:35:57;8.90;;;5.57;;
11481;SDS011;5797;51.662;6.748;2023-03-01T15:38:26;8.53;;;5.30;;
11481;SDS011;5797;51.662;6.748;2023-03-01T15:41:00;9.60;;;5.43;;